sensor_id;sensor_type;location;lat;lon;timestamp;temperature;humidity
11908;DHT22;6014;47.690;9.130;2022-12-29T00:01:49;4.10;99.90
11908;DHT22;6014;47.690;9.130;2022-12-29T00:04:19;4.10;99.90
11908;DHT22;6014;47.690;9.130;2022-12-29T00:06:52;4.10;99.90
11908;DHT22;6014;47.690;9.130;2022-12-29T00:09:21;4.00;99.90
11908;DHT22;6014;47.690;9.130;2022-12-29T00:11:49;3.80;99.90
11908;DHT22;6014;47.690;9.130;2022-12-29T00:14:18;3.80;99.90
11908;DHT22;6014;47.690;9.130;2022-12-29T00:17:05;3.80;99.90
11908;DHT22;6014;47.690;9.130;2022-12-29T00:19:34;3.80;99.90
11908;DHT22;6014;47.690;9.130;2022-12-29T00:22:20;3.70;99.90
11908;DHT22;6014;47.690;9.130;2022-12-29T00:25:08;3.70;99.90
11908;DHT22;6014;47.690;9.130;2022-12-29T00:27:54;3.70;99.90
11908;DHT22;6014;47.690;9.130;2022-12-29T00:30:46;3.50;99.90
11908;DHT22;6014;47.690;9.130;2022-12-29T00:33:34;3.50;99.90
11908;DHT22;6014;47.690;9.130;2022-12-29T00:36:23;3.50;99.90
11908;DHT22;6014;47.690;9.130;2022-12-29T00:38:56;3.50;99.90
11908;DHT22;6014;47.690;9.130;2022-12-29T00:41:43;3.40;99.90
11908;DHT22;6014;47.690;9.130;2022-12-29T00:44:29;3.30;99.90
11908;DHT22;6014;47.690;9.130;2022-12-29T00:46:57;3.40;99.90
11908;DHT22;6014;47.690;9.130;2022-12-29T00:49:35;3.30;99.90
11908;DHT22;6014;47.690;9.130;2022-12-29T00:52:05;3.30;99.90
11908;DHT22;6014;47.690;9.130;2022-12-29T00:54:38;3.30;99.90
11908;DHT22;6014;47.690;9.130;2022-12-29T00:57:08;3.50;99.90
11908;DHT22;6014;47.690;9.130;2022-12-29T00:59:37;3.50;99.90
11908;DHT22;6014;47.690;9.130;2022-12-29T01:02:08;3.60;99.90
11908;DHT22;6014;47.690;9.130;2022-12-29T01:04:37;3.90;99.90
11908;DHT22;6014;47.690;9.130;2022-12-29T01:07:06;4.10;99.90
11908;DHT22;6014;47.690;9.130;2022-12-29T01:09:34;4.10;99.90
11908;DHT22;6014;47.690;9.130;2022-12-29T01:12:20;4.30;99.90
11908;DHT22;6014;47.690;9.130;2022-12-29T01:15:12;4.50;99.90
11908;DHT22;6014;47.690;9.130;2022-12-29T01:17:41;4.50;99.90
11908;DHT22;6014;47.690;9.130;2022-12-29T01:20:11;4.50;99.90
11908;DHT22;6014;47.690;9.130;2022-12-29T01:22:39;4.50;99.90
11908;DHT22;6014;47.690;9.130;2022-12-29T01:25:09;4.60;99.90
11908;DHT22;6014;47.690;9.130;2022-12-29T01:27:37;4.70;99.90
11908;DHT22;6014;47.690;9.130;2022-12-29T01:30:06;5.00;99.90
11908;DHT22;6014;47.690;9.130;2022-12-29T01:32:35;5.40;99.90
11908;DHT22;6014;47.690;9.130;2022-12-29T01:35:03;5.60;99.90
11908;DHT22;6014;47.690;9.130;2022-12-29T01:37:33;5.90;99.90
11908;DHT22;6014;47.690;9.130;2022-12-29T01:40:01;6.20;99.90
11908;DHT22;6014;47.690;9.130;2022-12-29T01:42:30;6.30;99.90
11908;DHT22;6014;47.690;9.130;2022-12-29T01:45:00;6.50;99.90
11908;DHT22;6014;47.690;9.130;2022-12-29T01:47:33;6.50;99.90
11908;DHT22;6014;47.690;9.130;2022-12-29T01:50:06;6.70;99.90
11908;DHT22;6014;47.690;9.130;2022-12-29T01:52:41;6.70;99.90
11908;DHT22;6014;47.690;9.130;2022-12-29T01:55:11;6.80;99.90
11908;DHT22;6014;47.690;9.130;2022-12-29T01:57:44;7.00;99.90
11908;DHT22;6014;47.690;9.130;2022-12-29T02:00:15;7.10;99.90
11908;DHT22;6014;47.690;9.130;2022-12-29T02:02:47;7.30;99.90
11908;DHT22;6014;47.690;9.130;2022-12-29T02:05:24;7.70;99.90
11908;DHT22;6014;47.690;9.130;2022-12-29T02:07:55;7.90;99.90
11908;DHT22;6014;47.690;9.130;2022-12-29T02:10:32;8.10;99.90
11908;DHT22;6014;47.690;9.130;2022-12-29T02:13:06;8.30;99.90
11908;DHT22;6014;47.690;9.130;2022-12-29T02:15:44;8.30;99.90
11908;DHT22;6014;47.690;9.130;2022-12-29T02:18:24;8.50;99.90
11908;DHT22;6014;47.690;9.130;2022-12-29T02:21:29;8.70;99.60
11908;DHT22;6014;47.690;9.130;2022-12-29T02:24:27;8.70;98.40
11908;DHT22;6014;47.690;9.130;2022-12-29T02:27:22;8.80;97.60
11908;DHT22;6014;47.690;9.130;2022-12-29T02:30:07;8.80;96.90
11908;DHT22;6014;47.690;9.130;2022-12-29T02:32:52;8.80;97.30
11908;DHT22;6014;47.690;9.130;2022-12-29T02:35:29;8.90;97.70
11908;DHT22;6014;47.690;9.130;2022-12-29T02:38:10;8.80;97.70
11908;DHT22;6014;47.690;9.130;2022-12-29T02:40:46;8.80;99.10
11908;DHT22;6014;47.690;9.130;2022-12-29T02:43:23;8.90;98.70
11908;DHT22;6014;47.690;9.130;2022-12-29T02:46:04;9.00;99.10
11908;DHT22;6014;47.690;9.130;2022-12-29T02:48:45;9.00;99.20
11908;DHT22;6014;47.690;9.130;2022-12-29T02:51:18;9.10;99.40
11908;DHT22;6014;47.690;9.130;2022-12-29T02:53:48;9.10;99.90
11908;DHT22;6014;47.690;9.130;2022-12-29T02:56:34;9.10;99.90
11908;DHT22;6014;47.690;9.130;2022-12-29T02:59:03;9.10;99.90
11908;DHT22;6014;47.690;9.130;2022-12-29T03:01:40;9.10;99.90
11908;DHT22;6014;47.690;9.130;2022-12-29T03:04:38;9.10;99.90
11908;DHT22;6014;47.690;9.130;2022-12-29T03:07:22;9.10;99.90
11908;DHT22;6014;47.690;9.130;2022-12-29T03:09:59;9.20;99.90
11908;DHT22;6014;47.690;9.130;2022-12-29T03:12:31;9.00;99.90
11908;DHT22;6014;47.690;9.130;2022-12-29T03:15:22;9.00;99.90
11908;DHT22;6014;47.690;9.130;2022-12-29T03:18:14;8.90;99.90
11908;DHT22;6014;47.690;9.130;2022-12-29T03:20:51;8.80;99.90
11908;DHT22;6014;47.690;9.130;2022-12-29T03:23:22;8.60;99.90
11908;DHT22;6014;47.690;9.130;2022-12-29T03:25:54;8.60;99.90
11908;DHT22;6014;47.690;9.130;2022-12-29T03:28:29;8.60;99.90
11908;DHT22;6014;47.690;9.130;2022-12-29T03:30:59;8.60;99.90
11908;DHT22;6014;47.690;9.130;2022-12-29T03:33:28;8.60;99.90
11908;DHT22;6014;47.690;9.130;2022-12-29T03:36:03;8.50;99.90
11908;DHT22;6014;47.690;9.130;2022-12-29T03:38:37;8.50;99.90
11908;DHT22;6014;47.690;9.130;2022-12-29T03:41:12;8.50;99.90
11908;DHT22;6014;47.690;9.130;2022-12-29T03:43:42;8.50;99.90
11908;DHT22;6014;47.690;9.130;2022-12-29T03:46:10;8.50;99.90
11908;DHT22;6014;47.690;9.130;2022-12-29T03:48:44;8.50;99.90
11908;DHT22;6014;47.690;9.130;2022-12-29T03:51:13;8.60;99.90
11908;DHT22;6014;47.690;9.130;2022-12-29T03:53:41;8.60;99.90
11908;DHT22;6014;47.690;9.130;2022-12-29T03:56:10;8.50;99.90
11908;DHT22;6014;47.690;9.130;2022-12-29T03:58:41;8.50;99.90
11908;DHT22;6014;47.690;9.130;2022-12-29T04:01:13;8.50;99.90
11908;DHT22;6014;47.690;9.130;2022-12-29T04:03:43;8.50;99.90
11908;DHT22;6014;47.690;9.130;2022-12-29T04:06:17;8.40;99.90
11908;DHT22;6014;47.690;9.130;2022-12-29T04:08:46;8.50;99.90
11908;DHT22;6014;47.690;9.130;2022-12-29T04:11:17;8.60;99.90
11908;DHT22;6014;47.690;9.130;2022-12-29T04:13:48;8.60;99.90
11908;DHT22;6014;47.690;9.130;2022-12-29T04:16:16;8.60;99.90
11908;DHT22;6014;47.690;9.130;2022-12-29T04:18:48;8.50;99.90
11908;DHT22;6014;47.690;9.130;2022-12-29T04:21:17;8.50;99.90
11908;DHT22;6014;47.690;9.130;2022-12-29T04:23:49;8.60;99.90
11908;DHT22;6014;47.690;9.130;2022-12-29T04:26:18;8.60;99.90
11908;DHT22;6014;47.690;9.130;2022-12-29T04:28:46;8.60;99.90
11908;DHT22;6014;47.690;9.130;2022-12-29T04:31:14;8.60;99.90
11908;DHT22;6014;47.690;9.130;2022-12-29T04:33:44;8.70;99.90
11908;DHT22;6014;47.690;9.130;2022-12-29T04:36:12;8.70;99.90
11908;DHT22;6014;47.690;9.130;2022-12-29T04:38:42;8.60;99.90
11908;DHT22;6014;47.690;9.130;2022-12-29T04:41:10;8.60;99.90
11908;DHT22;6014;47.690;9.130;2022-12-29T04:43:38;8.60;99.90
11908;DHT22;6014;47.690;9.130;2022-12-29T04:46:07;8.50;99.90
11908;DHT22;6014;47.690;9.130;2022-12-29T04:48:35;8.40;99.90
11908;DHT22;6014;47.690;9.130;2022-12-29T04:51:09;8.30;99.90
11908;DHT22;6014;47.690;9.130;2022-12-29T04:53:41;8.20;99.90
11908;DHT22;6014;47.690;9.130;2022-12-29T04:56:11;8.10;99.90
11908;DHT22;6014;47.690;9.130;2022-12-29T04:58:40;8.00;99.90
11908;DHT22;6014;47.690;9.130;2022-12-29T05:01:08;7.90;99.90
11908;DHT22;6014;47.690;9.130;2022-12-29T05:03:36;7.80;99.90
11908;DHT22;6014;47.690;9.130;2022-12-29T05:06:06;7.60;99.90
11908;DHT22;6014;47.690;9.130;2022-12-29T05:08:35;7.50;99.90
11908;DHT22;6014;47.690;9.130;2022-12-29T05:11:06;7.40;99.90
11908;DHT22;6014;47.690;9.130;2022-12-29T05:13:36;7.20;99.90
11908;DHT22;6014;47.690;9.130;2022-12-29T05:16:05;7.00;99.90
11908;DHT22;6014;47.690;9.130;2022-12-29T05:18:33;6.80;99.90
11908;DHT22;6014;47.690;9.130;2022-12-29T05:21:01;6.90;99.90
11908;DHT22;6014;47.690;9.130;2022-12-29T05:23:30;6.80;99.90
11908;DHT22;6014;47.690;9.130;2022-12-29T05:25:58;6.80;99.90
11908;DHT22;6014;47.690;9.130;2022-12-29T05:28:26;6.90;99.90
11908;DHT22;6014;47.690;9.130;2022-12-29T05:30:56;6.90;99.90
11908;DHT22;6014;47.690;9.130;2022-12-29T05:33:27;6.90;99.90
11908;DHT22;6014;47.690;9.130;2022-12-29T05:35:55;6.90;99.90
11908;DHT22;6014;47.690;9.130;2022-12-29T05:38:24;6.80;99.90
11908;DHT22;6014;47.690;9.130;2022-12-29T05:40:52;6.70;99.90
11908;DHT22;6014;47.690;9.130;2022-12-29T05:43:21;6.60;99.90
11908;DHT22;6014;47.690;9.130;2022-12-29T05:45:50;6.60;99.90
11908;DHT22;6014;47.690;9.130;2022-12-29T05:48:21;6.50;99.90
11908;DHT22;6014;47.690;9.130;2022-12-29T05:50:50;6.50;99.90
11908;DHT22;6014;47.690;9.130;2022-12-29T05:53:20;6.40;99.90
11908;DHT22;6014;47.690;9.130;2022-12-29T05:55:49;6.50;99.90
11908;DHT22;6014;47.690;9.130;2022-12-29T05:58:19;6.40;99.90
11908;DHT22;6014;47.690;9.130;2022-12-29T06:00:47;6.50;99.90
11908;DHT22;6014;47.690;9.130;2022-12-29T06:03:16;6.50;99.90
11908;DHT22;6014;47.690;9.130;2022-12-29T06:05:46;6.50;99.90
11908;DHT22;6014;47.690;9.130;2022-12-29T06:08:14;6.60;99.90
11908;DHT22;6014;47.690;9.130;2022-12-29T06:10:43;6.70;99.90
11908;DHT22;6014;47.690;9.130;2022-12-29T06:13:12;6.80;99.90
11908;DHT22;6014;47.690;9.130;2022-12-29T06:15:43;6.90;99.90
11908;DHT22;6014;47.690;9.130;2022-12-29T06:18:11;6.90;99.90
11908;DHT22;6014;47.690;9.130;2022-12-29T06:20:47;6.90;99.90
11908;DHT22;6014;47.690;9.130;2022-12-29T06:23:17;6.90;99.90
11908;DHT22;6014;47.690;9.130;2022-12-29T06:25:49;7.00;99.90
11908;DHT22;6014;47.690;9.130;2022-12-29T06:28:17;7.10;99.90
11908;DHT22;6014;47.690;9.130;2022-12-29T06:30:46;7.30;99.90
11908;DHT22;6014;47.690;9.130;2022-12-29T06:33:16;7.40;99.90
11908;DHT22;6014;47.690;9.130;2022-12-29T06:35:44;7.40;99.90
11908;DHT22;6014;47.690;9.130;2022-12-29T06:38:15;7.60;99.90
11908;DHT22;6014;47.690;9.130;2022-12-29T06:40:44;7.80;99.90
11908;DHT22;6014;47.690;9.130;2022-12-29T06:43:12;7.90;99.90
11908;DHT22;6014;47.690;9.130;2022-12-29T06:45:42;7.80;99.90
11908;DHT22;6014;47.690;9.130;2022-12-29T06:48:10;8.00;99.90
11908;DHT22;6014;47.690;9.130;2022-12-29T06:50:38;8.00;99.90
11908;DHT22;6014;47.690;9.130;2022-12-29T06:53:06;8.30;99.90
11908;DHT22;6014;47.690;9.130;2022-12-29T06:55:42;8.50;99.90
11908;DHT22;6014;47.690;9.130;2022-12-29T06:58:11;8.70;99.90
11908;DHT22;6014;47.690;9.130;2022-12-29T07:00:39;8.70;99.90
11908;DHT22;6014;47.690;9.130;2022-12-29T07:03:07;8.80;99.90
11908;DHT22;6014;47.690;9.130;2022-12-29T07:05:41;8.90;99.90
11908;DHT22;6014;47.690;9.130;2022-12-29T07:08:09;9.00;99.90
11908;DHT22;6014;47.690;9.130;2022-12-29T07:10:37;9.10;99.90
11908;DHT22;6014;47.690;9.130;2022-12-29T07:13:07;9.30;99.90
11908;DHT22;6014;47.690;9.130;2022-12-29T07:15:36;9.40;99.90
11908;DHT22;6014;47.690;9.130;2022-12-29T07:18:04;9.40;99.90
11908;DHT22;6014;47.690;9.130;2022-12-29T07:20:32;9.40;99.90
11908;DHT22;6014;47.690;9.130;2022-12-29T07:23:02;9.40;99.90
11908;DHT22;6014;47.690;9.130;2022-12-29T07:25:30;9.40;99.90
11908;DHT22;6014;47.690;9.130;2022-12-29T07:27:58;9.40;99.90
11908;DHT22;6014;47.690;9.130;2022-12-29T07:30:31;9.40;99.90
11908;DHT22;6014;47.690;9.130;2022-12-29T07:33:00;9.40;99.90
11908;DHT22;6014;47.690;9.130;2022-12-29T07:35:32;9.60;99.90
11908;DHT22;6014;47.690;9.130;2022-12-29T07:38:01;9.60;99.90
11908;DHT22;6014;47.690;9.130;2022-12-29T07:40:29;9.60;99.90
11908;DHT22;6014;47.690;9.130;2022-12-29T07:43:01;9.60;99.90
11908;DHT22;6014;47.690;9.130;2022-12-29T07:45:31;9.70;99.90
11908;DHT22;6014;47.690;9.130;2022-12-29T07:48:01;9.60;99.90
11908;DHT22;6014;47.690;9.130;2022-12-29T07:50:30;9.60;99.90
11908;DHT22;6014;47.690;9.130;2022-12-29T07:52:58;9.50;99.90
11908;DHT22;6014;47.690;9.130;2022-12-29T07:55:26;9.50;99.90
11908;DHT22;6014;47.690;9.130;2022-12-29T07:57:54;9.50;99.90
11908;DHT22;6014;47.690;9.130;2022-12-29T08:00:22;9.50;99.90
11908;DHT22;6014;47.690;9.130;2022-12-29T08:02:52;9.60;99.90
11908;DHT22;6014;47.690;9.130;2022-12-29T08:05:21;9.70;99.90
11908;DHT22;6014;47.690;9.130;2022-12-29T08:07:49;9.70;99.90
11908;DHT22;6014;47.690;9.130;2022-12-29T08:10:18;9.80;99.90
11908;DHT22;6014;47.690;9.130;2022-12-29T08:12:46;9.90;99.90
11908;DHT22;6014;47.690;9.130;2022-12-29T08:15:14;9.90;99.90
11908;DHT22;6014;47.690;9.130;2022-12-29T08:17:43;9.90;99.90
11908;DHT22;6014;47.690;9.130;2022-12-29T08:20:12;9.90;99.90
11908;DHT22;6014;47.690;9.130;2022-12-29T08:22:40;9.90;99.90
11908;DHT22;6014;47.690;9.130;2022-12-29T08:25:08;9.90;99.90
11908;DHT22;6014;47.690;9.130;2022-12-29T08:27:37;9.80;99.90
11908;DHT22;6014;47.690;9.130;2022-12-29T08:30:06;9.80;99.90
11908;DHT22;6014;47.690;9.130;2022-12-29T08:32:34;9.80;99.90
11908;DHT22;6014;47.690;9.130;2022-12-29T08:35:03;9.70;99.90
11908;DHT22;6014;47.690;9.130;2022-12-29T08:37:33;9.70;99.90
11908;DHT22;6014;47.690;9.130;2022-12-29T08:40:06;9.80;99.90
11908;DHT22;6014;47.690;9.130;2022-12-29T08:42:38;9.90;99.90
11908;DHT22;6014;47.690;9.130;2022-12-29T08:45:07;9.90;99.90
11908;DHT22;6014;47.690;9.130;2022-12-29T08:47:36;9.90;99.90
11908;DHT22;6014;47.690;9.130;2022-12-29T08:50:06;9.90;99.90
11908;DHT22;6014;47.690;9.130;2022-12-29T08:52:35;9.90;99.90
11908;DHT22;6014;47.690;9.130;2022-12-29T08:55:04;9.90;99.90
11908;DHT22;6014;47.690;9.130;2022-12-29T08:57:32;9.90;99.90
11908;DHT22;6014;47.690;9.130;2022-12-29T09:00:01;9.90;99.90
11908;DHT22;6014;47.690;9.130;2022-12-29T09:02:29;10.00;99.90
11908;DHT22;6014;47.690;9.130;2022-12-29T09:04:58;10.00;99.90
11908;DHT22;6014;47.690;9.130;2022-12-29T09:07:27;10.00;99.90
11908;DHT22;6014;47.690;9.130;2022-12-29T09:09:56;10.00;99.90
11908;DHT22;6014;47.690;9.130;2022-12-29T09:12:25;10.10;99.90
11908;DHT22;6014;47.690;9.130;2022-12-29T09:15:02;10.10;99.90
11908;DHT22;6014;47.690;9.130;2022-12-29T09:17:30;10.20;99.90
11908;DHT22;6014;47.690;9.130;2022-12-29T09:20:13;10.30;99.90
11908;DHT22;6014;47.690;9.130;2022-12-29T09:22:42;10.40;99.90
11908;DHT22;6014;47.690;9.130;2022-12-29T09:25:12;10.50;99.90
11908;DHT22;6014;47.690;9.130;2022-12-29T09:27:41;10.60;99.90
11908;DHT22;6014;47.690;9.130;2022-12-29T09:30:11;10.70;99.90
11908;DHT22;6014;47.690;9.130;2022-12-29T09:32:41;10.70;99.90
11908;DHT22;6014;47.690;9.130;2022-12-29T09:35:13;10.70;99.90
11908;DHT22;6014;47.690;9.130;2022-12-29T09:37:44;10.90;99.90
11908;DHT22;6014;47.690;9.130;2022-12-29T09:40:24;11.00;99.90
11908;DHT22;6014;47.690;9.130;2022-12-29T09:43:17;11.10;99.50
11908;DHT22;6014;47.690;9.130;2022-12-29T09:45:58;11.20;97.90
11908;DHT22;6014;47.690;9.130;2022-12-29T09:48:32;11.30;97.80
11908;DHT22;6014;47.690;9.130;2022-12-29T09:51:05;11.80;97.40
11908;DHT22;6014;47.690;9.130;2022-12-29T09:53:39;11.40;96.40
11908;DHT22;6014;47.690;9.130;2022-12-29T09:56:15;11.40;96.80
11908;DHT22;6014;47.690;9.130;2022-12-29T09:58:50;11.30;94.60
11908;DHT22;6014;47.690;9.130;2022-12-29T10:01:28;11.30;95.10
11908;DHT22;6014;47.690;9.130;2022-12-29T10:03:58;11.30;94.40
11908;DHT22;6014;47.690;9.130;2022-12-29T10:06:37;11.40;94.80
11908;DHT22;6014;47.690;9.130;2022-12-29T10:09:33;11.40;94.00
11908;DHT22;6014;47.690;9.130;2022-12-29T10:12:13;11.40;93.30
11908;DHT22;6014;47.690;9.130;2022-12-29T10:14:55;11.30;92.90
11908;DHT22;6014;47.690;9.130;2022-12-29T10:17:31;11.40;92.30
11908;DHT22;6014;47.690;9.130;2022-12-29T10:20:14;11.40;92.40
11908;DHT22;6014;47.690;9.130;2022-12-29T10:22:57;11.50;91.90
11908;DHT22;6014;47.690;9.130;2022-12-29T10:25:31;11.50;90.70
11908;DHT22;6014;47.690;9.130;2022-12-29T10:28:05;11.60;90.80
11908;DHT22;6014;47.690;9.130;2022-12-29T10:30:35;11.80;91.30
11908;DHT22;6014;47.690;9.130;2022-12-29T10:33:06;11.90;90.90
11908;DHT22;6014;47.690;9.130;2022-12-29T10:35:40;11.80;90.80
11908;DHT22;6014;47.690;9.130;2022-12-29T10:38:15;11.90;91.30
11908;DHT22;6014;47.690;9.130;2022-12-29T10:40:49;11.90;90.80
11908;DHT22;6014;47.690;9.130;2022-12-29T10:43:25;11.80;91.00
11908;DHT22;6014;47.690;9.130;2022-12-29T10:45:56;11.90;91.30
11908;DHT22;6014;47.690;9.130;2022-12-29T10:48:28;11.90;91.90
11908;DHT22;6014;47.690;9.130;2022-12-29T10:50:59;11.90;91.50
11908;DHT22;6014;47.690;9.130;2022-12-29T10:53:35;12.00;92.00
11908;DHT22;6014;47.690;9.130;2022-12-29T10:56:14;12.10;91.10
11908;DHT22;6014;47.690;9.130;2022-12-29T10:58:46;12.30;90.60
11908;DHT22;6014;47.690;9.130;2022-12-29T11:01:17;12.40;90.90
11908;DHT22;6014;47.690;9.130;2022-12-29T11:04:02;12.50;91.20
11908;DHT22;6014;47.690;9.130;2022-12-29T11:06:31;12.40;90.90
11908;DHT22;6014;47.690;9.130;2022-12-29T11:09:02;12.20;91.40
11908;DHT22;6014;47.690;9.130;2022-12-29T11:11:36;12.10;91.10
11908;DHT22;6014;47.690;9.130;2022-12-29T11:14:12;12.00;92.20
11908;DHT22;6014;47.690;9.130;2022-12-29T11:16:41;12.00;92.50
11908;DHT22;6014;47.690;9.130;2022-12-29T11:19:21;12.00;92.50
11908;DHT22;6014;47.690;9.130;2022-12-29T11:21:51;12.00;94.00
11908;DHT22;6014;47.690;9.130;2022-12-29T11:24:21;12.10;95.00
11908;DHT22;6014;47.690;9.130;2022-12-29T11:26:51;12.10;94.40
11908;DHT22;6014;47.690;9.130;2022-12-29T11:29:27;12.20;94.60
11908;DHT22;6014;47.690;9.130;2022-12-29T11:31:57;12.20;95.50
11908;DHT22;6014;47.690;9.130;2022-12-29T11:34:30;12.20;95.00
11908;DHT22;6014;47.690;9.130;2022-12-29T11:37:02;12.30;94.90
11908;DHT22;6014;47.690;9.130;2022-12-29T11:39:37;12.30;94.40
11908;DHT22;6014;47.690;9.130;2022-12-29T11:42:13;12.30;93.40
11908;DHT22;6014;47.690;9.130;2022-12-29T11:44:45;12.20;93.50
11908;DHT22;6014;47.690;9.130;2022-12-29T11:47:30;12.20;94.40
11908;DHT22;6014;47.690;9.130;2022-12-29T11:50:02;12.20;94.50
11908;DHT22;6014;47.690;9.130;2022-12-29T11:52:33;12.10;94.50
11908;DHT22;6014;47.690;9.130;2022-12-29T11:55:05;12.20;94.80
11908;DHT22;6014;47.690;9.130;2022-12-29T11:57:35;12.20;94.60
11908;DHT22;6014;47.690;9.130;2022-12-29T12:00:14;12.30;95.40
11908;DHT22;6014;47.690;9.130;2022-12-29T12:02:48;12.20;95.30
11908;DHT22;6014;47.690;9.130;2022-12-29T12:05:37;12.20;94.80
11908;DHT22;6014;47.690;9.130;2022-12-29T12:08:14;12.30;95.70
11908;DHT22;6014;47.690;9.130;2022-12-29T12:10:52;12.10;95.70
11908;DHT22;6014;47.690;9.130;2022-12-29T12:13:27;12.10;96.00
11908;DHT22;6014;47.690;9.130;2022-12-29T12:16:01;12.10;96.30
11908;DHT22;6014;47.690;9.130;2022-12-29T12:18:45;12.00;97.80
11908;DHT22;6014;47.690;9.130;2022-12-29T12:21:21;11.80;98.30
11908;DHT22;6014;47.690;9.130;2022-12-29T12:24:04;11.80;98.80
11908;DHT22;6014;47.690;9.130;2022-12-29T12:26:43;11.80;98.70
11908;DHT22;6014;47.690;9.130;2022-12-29T12:29:22;11.80;98.80
11908;DHT22;6014;47.690;9.130;2022-12-29T12:31:59;11.90;98.50
11908;DHT22;6014;47.690;9.130;2022-12-29T12:34:33;12.00;98.30
11908;DHT22;6014;47.690;9.130;2022-12-29T12:40:29;12.00;98.00
11908;DHT22;6014;47.690;9.130;2022-12-29T12:43:12;12.00;98.70
11908;DHT22;6014;47.690;9.130;2022-12-29T12:45:51;12.00;99.10
11908;DHT22;6014;47.690;9.130;2022-12-29T12:48:47;11.90;98.80
11908;DHT22;6014;47.690;9.130;2022-12-29T12:51:24;11.90;99.50
11908;DHT22;6014;47.690;9.130;2022-12-29T12:54:06;11.90;99.60
11908;DHT22;6014;47.690;9.130;2022-12-29T12:56:48;11.90;99.90
11908;DHT22;6014;47.690;9.130;2022-12-29T12:59:37;12.00;99.90
11908;DHT22;6014;47.690;9.130;2022-12-29T13:02:19;11.90;99.50
11908;DHT22;6014;47.690;9.130;2022-12-29T13:05:12;12.00;99.90
11908;DHT22;6014;47.690;9.130;2022-12-29T13:08:01;12.00;99.90
11908;DHT22;6014;47.690;9.130;2022-12-29T13:10:39;11.90;99.90
11908;DHT22;6014;47.690;9.130;2022-12-29T13:13:38;11.90;99.90
11908;DHT22;6014;47.690;9.130;2022-12-29T13:16:15;11.90;99.90
11908;DHT22;6014;47.690;9.130;2022-12-29T13:18:50;11.90;99.90
11908;DHT22;6014;47.690;9.130;2022-12-29T13:21:34;11.90;99.90
11908;DHT22;6014;47.690;9.130;2022-12-29T13:24:14;11.90;99.90
11908;DHT22;6014;47.690;9.130;2022-12-29T13:26:48;12.10;99.90
11908;DHT22;6014;47.690;9.130;2022-12-29T13:29:20;12.20;99.80
11908;DHT22;6014;47.690;9.130;2022-12-29T13:31:53;12.20;99.50
11908;DHT22;6014;47.690;9.130;2022-12-29T13:34:29;12.20;98.80
11908;DHT22;6014;47.690;9.130;2022-12-29T13:37:07;12.20;99.30
11908;DHT22;6014;47.690;9.130;2022-12-29T13:39:38;12.30;98.70
11908;DHT22;6014;47.690;9.130;2022-12-29T13:42:09;12.30;98.10
11908;DHT22;6014;47.690;9.130;2022-12-29T13:44:41;12.20;97.80
11908;DHT22;6014;47.690;9.130;2022-12-29T13:47:18;12.10;98.70
11908;DHT22;6014;47.690;9.130;2022-12-29T13:49:49;12.00;98.30
11908;DHT22;6014;47.690;9.130;2022-12-29T13:52:28;12.00;98.50
11908;DHT22;6014;47.690;9.130;2022-12-29T13:55:09;11.90;99.20
11908;DHT22;6014;47.690;9.130;2022-12-29T13:57:51;11.80;99.00
11908;DHT22;6014;47.690;9.130;2022-12-29T14:00:22;11.70;98.50
11908;DHT22;6014;47.690;9.130;2022-12-29T14:03:12;11.80;98.80
11908;DHT22;6014;47.690;9.130;2022-12-29T14:05:45;11.70;99.30
11908;DHT22;6014;47.690;9.130;2022-12-29T14:08:34;11.70;99.70
11908;DHT22;6014;47.690;9.130;2022-12-29T14:11:07;11.70;99.90
11908;DHT22;6014;47.690;9.130;2022-12-29T14:13:41;11.60;99.90
11908;DHT22;6014;47.690;9.130;2022-12-29T14:16:28;11.50;99.90
11908;DHT22;6014;47.690;9.130;2022-12-29T14:19:05;11.50;99.90
11908;DHT22;6014;47.690;9.130;2022-12-29T14:21:36;11.40;99.90
11908;DHT22;6014;47.690;9.130;2022-12-29T14:24:38;11.50;99.90
11908;DHT22;6014;47.690;9.130;2022-12-29T14:27:43;11.50;99.90
11908;DHT22;6014;47.690;9.130;2022-12-29T14:30:46;11.50;99.90
11908;DHT22;6014;47.690;9.130;2022-12-29T14:33:16;11.50;99.90
11908;DHT22;6014;47.690;9.130;2022-12-29T14:35:46;11.40;99.90
11908;DHT22;6014;47.690;9.130;2022-12-29T14:38:29;11.40;99.90
11908;DHT22;6014;47.690;9.130;2022-12-29T14:41:26;11.40;99.90
11908;DHT22;6014;47.690;9.130;2022-12-29T14:43:58;11.40;99.90
11908;DHT22;6014;47.690;9.130;2022-12-29T14:46:42;11.50;99.90
11908;DHT22;6014;47.690;9.130;2022-12-29T14:49:17;11.50;99.90
11908;DHT22;6014;47.690;9.130;2022-12-29T14:51:46;11.50;99.90
11908;DHT22;6014;47.690;9.130;2022-12-29T14:57:26;11.40;99.90
11908;DHT22;6014;47.690;9.130;2022-12-29T14:59:58;11.30;99.90
11908;DHT22;6014;47.690;9.130;2022-12-29T15:02:36;11.40;99.90
11908;DHT22;6014;47.690;9.130;2022-12-29T15:05:24;11.40;99.90
11908;DHT22;6014;47.690;9.130;2022-12-29T15:07:55;11.30;99.90
11908;DHT22;6014;47.690;9.130;2022-12-29T15:10:27;11.30;99.90
11908;DHT22;6014;47.690;9.130;2022-12-29T15:13:04;11.20;99.90
11908;DHT22;6014;47.690;9.130;2022-12-29T15:15:37;11.10;99.90
11908;DHT22;6014;47.690;9.130;2022-12-29T15:18:30;11.00;99.90
11908;DHT22;6014;47.690;9.130;2022-12-29T15:21:00;11.00;99.90
11908;DHT22;6014;47.690;9.130;2022-12-29T15:23:31;11.00;99.90
11908;DHT22;6014;47.690;9.130;2022-12-29T15:26:04;11.00;99.90
11908;DHT22;6014;47.690;9.130;2022-12-29T15:28:39;11.00;99.90
11908;DHT22;6014;47.690;9.130;2022-12-29T15:31:12;11.00;99.90
11908;DHT22;6014;47.690;9.130;2022-12-29T15:33:42;10.90;99.90
11908;DHT22;6014;47.690;9.130;2022-12-29T15:36:13;10.90;99.90
11908;DHT22;6014;47.690;9.130;2022-12-29T15:38:41;10.80;99.90
11908;DHT22;6014;47.690;9.130;2022-12-29T15:41:24;10.80;99.90
11908;DHT22;6014;47.690;9.130;2022-12-29T15:44:03;10.70;99.90
11908;DHT22;6014;47.690;9.130;2022-12-29T15:46:34;10.70;99.90
11908;DHT22;6014;47.690;9.130;2022-12-29T15:49:05;10.60;99.90
11908;DHT22;6014;47.690;9.130;2022-12-29T15:51:37;10.60;99.90
11908;DHT22;6014;47.690;9.130;2022-12-29T15:54:06;10.60;99.90
11908;DHT22;6014;47.690;9.130;2022-12-29T15:56:40;10.80;99.90
11908;DHT22;6014;47.690;9.130;2022-12-29T15:59:23;10.70;99.90
11908;DHT22;6014;47.690;9.130;2022-12-29T16:01:52;10.70;99.90
11908;DHT22;6014;47.690;9.130;2022-12-29T16:04:21;10.70;99.90
11908;DHT22;6014;47.690;9.130;2022-12-29T16:06:56;10.70;99.90
11908;DHT22;6014;47.690;9.130;2022-12-29T16:09:35;10.80;99.90
11908;DHT22;6014;47.690;9.130;2022-12-29T16:12:06;10.70;99.90
11908;DHT22;6014;47.690;9.130;2022-12-29T16:14:40;10.70;99.90
11908;DHT22;6014;47.690;9.130;2022-12-29T16:17:13;10.70;99.90
11908;DHT22;6014;47.690;9.130;2022-12-29T16:19:49;10.70;99.90
11908;DHT22;6014;47.690;9.130;2022-12-29T16:22:22;10.70;99.90
11908;DHT22;6014;47.690;9.130;2022-12-29T16:24:57;10.70;99.90
11908;DHT22;6014;47.690;9.130;2022-12-29T16:27:37;10.70;99.90
11908;DHT22;6014;47.690;9.130;2022-12-29T16:30:17;10.70;99.90
11908;DHT22;6014;47.690;9.130;2022-12-29T16:32:55;10.50;99.90
11908;DHT22;6014;47.690;9.130;2022-12-29T16:35:24;10.50;99.90
11908;DHT22;6014;47.690;9.130;2022-12-29T16:38:11;10.50;99.90
11908;DHT22;6014;47.690;9.130;2022-12-29T16:40:49;10.50;99.90
11908;DHT22;6014;47.690;9.130;2022-12-29T16:43:23;10.50;99.90
11908;DHT22;6014;47.690;9.130;2022-12-29T16:46:18;10.40;99.90